WZZ374 EDDK-LQTZ
Flight info
| Callsign | WZZ374 |
|---|---|
| Flight time | 1h 37m |
| Altitude | 35000 |
| Route | KUMIK1R KUMIK L603 TESGA DCT ESATI DCT DETEV DCT DINKU DCT BESNI DCT LATLO DCT OBEDI DCT PODET DCT MOSAV/N0341F190 N131 DER |
| Aircraft | A21N/M-SDE1E2E3FGIJ1J4RWXY/LB1 |
Departure
| Time | 2026-04-25 09:32 |
|---|---|
| Airport | Cologne Bonn Airport (EDDK) |
Arrival
| Time | 2026-04-25 11:09 |
|---|---|
| Airport | Tuzla International Airport (LQTZ) |
| Time | Latitude | Longitude | Altitude | Speed | Heading |
|---|---|---|---|---|---|
| 2026-04-25 08:59 | 50.88202 | 7.11907 | 238 ft | 0 kts | 216° |
| 2026-04-25 09:16 | 50.88207 | 7.11914 | 238 ft | 4 kts | 217° |
| 2026-04-25 09:16 | 50.88226 | 7.11937 | 238 ft | 3 kts | 215° |
| 2026-04-25 09:16 | 50.88247 | 7.11950 | 238 ft | 4 kts | 162° |
| 2026-04-25 09:16 | 50.88254 | 7.11944 | 238 ft | 3 kts | 143° |
| 2026-04-25 09:17 | 50.88284 | 7.11909 | 238 ft | 3 kts | 143° |
| 2026-04-25 09:17 | 50.88298 | 7.11891 | 238 ft | 3 kts | 143° |
| 2026-04-25 09:17 | 50.88313 | 7.11873 | 238 ft | 3 kts | 143° |
| 2026-04-25 09:18 | 50.88328 | 7.11856 | 238 ft | 3 kts | 143° |
| 2026-04-25 09:18 | 50.88342 | 7.11838 | 238 ft | 2 kts | 143° |
| 2026-04-25 09:18 | 50.88343 | 7.11838 | 238 ft | 0 kts | 143° |
| 2026-04-25 09:25 | 50.88339 | 7.11843 | 238 ft | 2 kts | 143° |
| 2026-04-25 09:25 | 50.88321 | 7.11865 | 238 ft | 4 kts | 143° |
| 2026-04-25 09:25 | 50.88293 | 7.11902 | 238 ft | 6 kts | 132° |
| 2026-04-25 09:25 | 50.88263 | 7.11965 | 237 ft | 8 kts | 126° |
| 2026-04-25 09:26 | 50.88225 | 7.12047 | 238 ft | 10 kts | 126° |
| 2026-04-25 09:26 | 50.88180 | 7.12146 | 238 ft | 12 kts | 126° |
| 2026-04-25 09:26 | 50.88126 | 7.12262 | 238 ft | 14 kts | 126° |
| 2026-04-25 09:26 | 50.88066 | 7.12393 | 238 ft | 16 kts | 128° |
| 2026-04-25 09:27 | 50.87986 | 7.12517 | 238 ft | 16 kts | 138° |
| 2026-04-25 09:27 | 50.87917 | 7.12607 | 238 ft | 12 kts | 159° |
| 2026-04-25 09:27 | 50.87828 | 7.12581 | 237 ft | 14 kts | 198° |
| 2026-04-25 09:27 | 50.87728 | 7.12530 | 237 ft | 16 kts | 198° |
| 2026-04-25 09:28 | 50.87619 | 7.12474 | 237 ft | 17 kts | 198° |
| 2026-04-25 09:28 | 50.87499 | 7.12412 | 237 ft | 19 kts | 198° |
| 2026-04-25 09:28 | 50.87370 | 7.12347 | 237 ft | 20 kts | 198° |
| 2026-04-25 09:28 | 50.87232 | 7.12276 | 237 ft | 21 kts | 198° |
| 2026-04-25 09:29 | 50.87127 | 7.12194 | 239 ft | 15 kts | 228° |
| 2026-04-25 09:29 | 50.87041 | 7.12076 | 239 ft | 17 kts | 206° |
| 2026-04-25 09:29 | 50.86920 | 7.12054 | 238 ft | 18 kts | 165° |
| 2026-04-25 09:29 | 50.86791 | 7.12108 | 237 ft | 20 kts | 166° |
| 2026-04-25 09:30 | 50.86653 | 7.12164 | 238 ft | 21 kts | 165° |
| 2026-04-25 09:30 | 50.86506 | 7.12223 | 237 ft | 22 kts | 165° |
| 2026-04-25 09:30 | 50.86350 | 7.12287 | 237 ft | 24 kts | 165° |
| 2026-04-25 09:30 | 50.86223 | 7.12336 | 238 ft | 7 kts | 172° |
| 2026-04-25 09:31 | 50.86164 | 7.12350 | 240 ft | 10 kts | 170° |
| 2026-04-25 09:31 | 50.86083 | 7.12377 | 244 ft | 13 kts | 167° |
| 2026-04-25 09:31 | 50.86040 | 7.12457 | 244 ft | 12 kts | 79° |
| 2026-04-25 09:31 | 50.86144 | 7.12812 | 249 ft | 72 kts | 64° |
| 2026-04-25 09:32 | 50.86467 | 7.13881 | 261 ft | 143 kts | 64° |
| 2026-04-25 09:32 | 50.86950 | 7.15496 | 627 ft | 167 kts | 63° |
| 2026-04-25 09:32 | 50.87464 | 7.17145 | 1384 ft | 168 kts | 63° |
| 2026-04-25 09:32 | 50.87972 | 7.18908 | 1926 ft | 185 kts | 63° |
| 2026-04-25 09:33 | 50.88536 | 7.20866 | 2452 ft | 204 kts | 63° |
| 2026-04-25 09:33 | 50.89139 | 7.22969 | 3075 ft | 217 kts | 63° |
| 2026-04-25 09:33 | 50.89797 | 7.25265 | 3526 ft | 241 kts | 63° |
| 2026-04-25 09:33 | 50.90528 | 7.27772 | 4104 ft | 258 kts | 63° |
| 2026-04-25 09:34 | 50.91294 | 7.30392 | 4954 ft | 265 kts | 63° |
| 2026-04-25 09:34 | 50.92071 | 7.33114 | 5807 ft | 270 kts | 66° |
| 2026-04-25 09:34 | 50.92499 | 7.36036 | 6665 ft | 277 kts | 83° |
| 2026-04-25 09:34 | 50.92626 | 7.39109 | 7479 ft | 282 kts | 85° |
| 2026-04-25 09:35 | 50.92736 | 7.42235 | 8295 ft | 286 kts | 85° |
| 2026-04-25 09:35 | 50.92850 | 7.45412 | 9108 ft | 291 kts | 85° |
| 2026-04-25 09:35 | 50.92971 | 7.48637 | 9900 ft | 296 kts | 84° |
| 2026-04-25 09:35 | 50.93095 | 7.51930 | 10541 ft | 305 kts | 84° |
| 2026-04-25 09:36 | 50.93225 | 7.55341 | 10904 ft | 323 kts | 84° |
| 2026-04-25 09:36 | 50.93368 | 7.58985 | 11314 ft | 338 kts | 84° |
| 2026-04-25 09:36 | 50.93517 | 7.62743 | 11958 ft | 345 kts | 84° |
| 2026-04-25 09:36 | 50.93665 | 7.66562 | 12703 ft | 349 kts | 84° |
| 2026-04-25 09:37 | 50.93812 | 7.70425 | 13452 ft | 354 kts | 85° |
| 2026-04-25 09:37 | 50.93952 | 7.74346 | 14180 ft | 358 kts | 85° |
| 2026-04-25 09:37 | 50.94090 | 7.78307 | 14851 ft | 362 kts | 87° |
| 2026-04-25 09:37 | 50.93811 | 7.82294 | 15520 ft | 368 kts | 105° |
| 2026-04-25 09:38 | 50.92734 | 7.85981 | 16198 ft | 372 kts | 122° |
| 2026-04-25 09:38 | 50.91277 | 7.89390 | 16893 ft | 375 kts | 125° |
| 2026-04-25 09:38 | 50.89779 | 7.92800 | 17574 ft | 379 kts | 124° |
| 2026-04-25 09:38 | 50.88286 | 7.96262 | 18237 ft | 383 kts | 124° |
| 2026-04-25 09:39 | 50.86801 | 7.99777 | 18854 ft | 386 kts | 124° |
| 2026-04-25 09:39 | 50.85304 | 8.03332 | 19437 ft | 390 kts | 124° |
| 2026-04-25 09:39 | 50.83794 | 8.06930 | 19980 ft | 394 kts | 124° |
| 2026-04-25 09:40 | 50.80725 | 8.14216 | 21091 ft | 402 kts | 124° |
| 2026-04-25 09:40 | 50.79166 | 8.17907 | 21636 ft | 405 kts | 124° |
| 2026-04-25 09:40 | 50.77601 | 8.21635 | 22180 ft | 409 kts | 124° |
| 2026-04-25 09:40 | 50.76019 | 8.25396 | 22718 ft | 413 kts | 124° |
| 2026-04-25 09:41 | 50.74421 | 8.29184 | 23251 ft | 416 kts | 125° |
| 2026-04-25 09:41 | 50.72802 | 8.32997 | 23775 ft | 420 kts | 125° |
| 2026-04-25 09:41 | 50.71162 | 8.36830 | 24204 ft | 423 kts | 126° |
| 2026-04-25 09:41 | 50.69274 | 8.40378 | 24627 ft | 424 kts | 139° |
| 2026-04-25 09:42 | 50.66899 | 8.43099 | 25043 ft | 422 kts | 153° |
| 2026-04-25 09:42 | 50.64305 | 8.45300 | 25432 ft | 425 kts | 155° |
| 2026-04-25 09:42 | 50.61669 | 8.47451 | 25822 ft | 428 kts | 155° |
| 2026-04-25 09:42 | 50.59023 | 8.49632 | 26223 ft | 431 kts | 155° |
| 2026-04-25 09:43 | 50.56369 | 8.51847 | 26598 ft | 433 kts | 155° |
| 2026-04-25 09:43 | 50.53704 | 8.54087 | 26998 ft | 435 kts | 156° |
| 2026-04-25 09:43 | 50.51025 | 8.56334 | 27374 ft | 438 kts | 156° |
| 2026-04-25 09:43 | 50.48331 | 8.58599 | 27754 ft | 440 kts | 155° |
| 2026-04-25 09:44 | 50.45636 | 8.60910 | 28107 ft | 444 kts | 153° |
| 2026-04-25 09:44 | 50.43131 | 8.63790 | 28430 ft | 452 kts | 141° |
| 2026-04-25 09:44 | 50.40842 | 8.67199 | 28770 ft | 455 kts | 138° |
| 2026-04-25 09:44 | 50.38575 | 8.70690 | 29104 ft | 458 kts | 138° |
| 2026-04-25 09:45 | 50.36292 | 8.74188 | 29436 ft | 461 kts | 138° |
| 2026-04-25 09:45 | 50.34734 | 8.76550 | 29664 ft | 462 kts | 139° |
| 2026-04-25 09:45 | 50.32415 | 8.80051 | 29987 ft | 464 kts | 139° |
| 2026-04-25 09:45 | 50.30112 | 8.83517 | 30244 ft | 467 kts | 139° |
| 2026-04-25 09:46 | 50.27728 | 8.87092 | 30471 ft | 470 kts | 139° |
| 2026-04-25 09:46 | 50.25362 | 8.90635 | 30713 ft | 472 kts | 139° |
| 2026-04-25 09:46 | 50.23016 | 8.94146 | 30941 ft | 475 kts | 139° |
| 2026-04-25 09:46 | 50.20587 | 8.97761 | 31201 ft | 477 kts | 139° |
| 2026-04-25 09:47 | 50.18215 | 9.01295 | 31446 ft | 479 kts | 139° |
| 2026-04-25 09:47 | 50.15769 | 9.04928 | 31722 ft | 480 kts | 139° |
| 2026-04-25 09:47 | 50.13349 | 9.08511 | 32035 ft | 479 kts | 139° |
| 2026-04-25 09:47 | 50.10967 | 9.12047 | 32319 ft | 479 kts | 139° |
| 2026-04-25 09:48 | 50.08556 | 9.15626 | 32603 ft | 479 kts | 138° |
| 2026-04-25 09:48 | 50.06148 | 9.19204 | 32909 ft | 478 kts | 139° |
| 2026-04-25 09:48 | 50.03742 | 9.22765 | 33181 ft | 477 kts | 139° |
| 2026-04-25 09:48 | 50.01340 | 9.26316 | 33450 ft | 476 kts | 139° |
| 2026-04-25 09:49 | 49.98937 | 9.29851 | 33708 ft | 475 kts | 139° |
| 2026-04-25 09:49 | 49.96540 | 9.33384 | 33927 ft | 475 kts | 139° |
| 2026-04-25 09:49 | 49.94139 | 9.36922 | 34145 ft | 475 kts | 139° |
| 2026-04-25 09:49 | 49.91736 | 9.40440 | 34346 ft | 475 kts | 139° |
| 2026-04-25 09:50 | 49.89332 | 9.43943 | 34564 ft | 473 kts | 139° |
| 2026-04-25 09:50 | 49.86942 | 9.47456 | 34747 ft | 473 kts | 138° |
| 2026-04-25 09:50 | 49.84549 | 9.50947 | 34922 ft | 473 kts | 139° |
| 2026-04-25 09:50 | 49.82157 | 9.54433 | 35113 ft | 472 kts | 139° |
| 2026-04-25 09:51 | 49.77398 | 9.61377 | 35166 ft | 467 kts | 139° |
| 2026-04-25 09:51 | 49.72659 | 9.68231 | 35144 ft | 466 kts | 139° |
| 2026-04-25 09:52 | 49.67922 | 9.75066 | 35137 ft | 466 kts | 139° |
| 2026-04-25 09:52 | 49.63187 | 9.81902 | 35138 ft | 466 kts | 139° |
| 2026-04-25 09:53 | 49.58441 | 9.88712 | 35140 ft | 466 kts | 139° |
| 2026-04-25 09:53 | 49.53703 | 9.95513 | 35121 ft | 464 kts | 140° |
| 2026-04-25 09:54 | 49.49002 | 10.02171 | 35135 ft | 458 kts | 139° |
| 2026-04-25 09:54 | 49.44348 | 10.08844 | 35143 ft | 458 kts | 139° |
| 2026-04-25 09:55 | 49.39683 | 10.15502 | 35141 ft | 458 kts | 139° |
| 2026-04-25 09:55 | 49.35017 | 10.22146 | 35147 ft | 458 kts | 140° |
| 2026-04-25 09:56 | 49.30345 | 10.28773 | 35155 ft | 458 kts | 140° |
| 2026-04-25 09:56 | 49.25664 | 10.35354 | 35149 ft | 454 kts | 140° |
| 2026-04-25 09:57 | 49.21085 | 10.42026 | 35162 ft | 455 kts | 138° |
| 2026-04-25 09:57 | 49.16555 | 10.48778 | 35158 ft | 455 kts | 138° |
| 2026-04-25 09:58 | 49.12015 | 10.55503 | 35173 ft | 455 kts | 138° |
| 2026-04-25 09:58 | 49.07473 | 10.62208 | 35174 ft | 454 kts | 138° |
| 2026-04-25 09:59 | 49.02912 | 10.68905 | 35171 ft | 456 kts | 139° |
| 2026-04-25 09:59 | 48.98407 | 10.75578 | 35167 ft | 454 kts | 139° |
| 2026-04-25 10:00 | 48.93850 | 10.82225 | 35156 ft | 453 kts | 139° |
| 2026-04-25 10:00 | 48.89293 | 10.88861 | 35155 ft | 454 kts | 139° |
| 2026-04-25 10:01 | 48.84756 | 10.95526 | 35152 ft | 454 kts | 139° |
| 2026-04-25 10:01 | 48.80171 | 11.02207 | 35146 ft | 454 kts | 140° |
| 2026-04-25 10:02 | 48.75596 | 11.08811 | 35135 ft | 454 kts | 140° |
| 2026-04-25 10:02 | 48.71062 | 11.15363 | 35137 ft | 454 kts | 140° |
| 2026-04-25 10:03 | 48.66491 | 11.21945 | 35140 ft | 454 kts | 140° |
| 2026-04-25 10:03 | 48.62075 | 11.28779 | 35139 ft | 455 kts | 136° |
| 2026-04-25 10:04 | 48.57824 | 11.35873 | 35139 ft | 456 kts | 136° |
| 2026-04-25 10:04 | 48.53559 | 11.42972 | 35143 ft | 457 kts | 136° |
| 2026-04-25 10:05 | 48.49292 | 11.50065 | 35123 ft | 456 kts | 136° |
| 2026-04-25 10:05 | 48.45047 | 11.57139 | 35138 ft | 455 kts | 136° |
| 2026-04-25 10:06 | 48.40791 | 11.64183 | 35141 ft | 455 kts | 136° |
| 2026-04-25 10:06 | 48.36519 | 11.71197 | 35141 ft | 455 kts | 136° |
| 2026-04-25 10:07 | 48.32195 | 11.78253 | 35143 ft | 456 kts | 136° |
| 2026-04-25 10:07 | 48.27936 | 11.85233 | 35142 ft | 456 kts | 136° |
| 2026-04-25 10:08 | 48.23633 | 11.92236 | 35139 ft | 456 kts | 136° |
| 2026-04-25 10:08 | 48.19338 | 11.99241 | 35137 ft | 456 kts | 136° |
| 2026-04-25 10:09 | 48.15015 | 12.06216 | 35134 ft | 458 kts | 136° |
| 2026-04-25 10:09 | 48.10684 | 12.13213 | 35132 ft | 459 kts | 136° |
| 2026-04-25 10:10 | 48.06348 | 12.20216 | 35132 ft | 459 kts | 136° |
| 2026-04-25 10:10 | 48.02008 | 12.27202 | 35130 ft | 459 kts | 137° |
| 2026-04-25 10:11 | 47.97657 | 12.34164 | 35121 ft | 458 kts | 136° |
| 2026-04-25 10:11 | 47.93331 | 12.41100 | 35128 ft | 456 kts | 136° |
| 2026-04-25 10:12 | 47.88990 | 12.47989 | 35132 ft | 456 kts | 136° |
| 2026-04-25 10:13 | 47.82485 | 12.58343 | 35133 ft | 456 kts | 136° |
| 2026-04-25 10:13 | 47.78128 | 12.65210 | 35125 ft | 457 kts | 137° |
| 2026-04-25 10:14 | 47.73778 | 12.72097 | 35117 ft | 457 kts | 136° |
| 2026-04-25 10:14 | 47.69410 | 12.78977 | 35112 ft | 457 kts | 136° |
| 2026-04-25 10:15 | 47.64949 | 12.85707 | 35116 ft | 457 kts | 138° |
| 2026-04-25 10:15 | 47.60458 | 12.92369 | 35122 ft | 456 kts | 138° |
| 2026-04-25 10:16 | 47.55970 | 12.99014 | 35115 ft | 456 kts | 139° |
| 2026-04-25 10:16 | 47.51502 | 13.05586 | 35108 ft | 456 kts | 139° |
| 2026-04-25 10:17 | 47.46990 | 13.12204 | 35106 ft | 457 kts | 139° |
| 2026-04-25 10:17 | 47.42453 | 13.18843 | 35115 ft | 456 kts | 139° |
| 2026-04-25 10:18 | 47.37984 | 13.25385 | 35123 ft | 456 kts | 139° |
| 2026-04-25 10:18 | 47.33485 | 13.31977 | 35113 ft | 457 kts | 136° |
| 2026-04-25 10:19 | 47.29573 | 13.39414 | 35118 ft | 461 kts | 128° |
| 2026-04-25 10:19 | 47.25846 | 13.47122 | 35118 ft | 462 kts | 128° |
| 2026-04-25 10:20 | 47.22108 | 13.54828 | 35112 ft | 463 kts | 128° |
| 2026-04-25 10:20 | 47.18361 | 13.62517 | 35111 ft | 461 kts | 128° |
| 2026-04-25 10:21 | 47.14625 | 13.70159 | 35086 ft | 460 kts | 128° |
| 2026-04-25 10:21 | 47.10882 | 13.77792 | 35089 ft | 461 kts | 128° |
| 2026-04-25 10:22 | 47.07128 | 13.85424 | 35105 ft | 461 kts | 128° |
| 2026-04-25 10:22 | 47.03373 | 13.93048 | 35085 ft | 461 kts | 128° |
| 2026-04-25 10:23 | 46.99616 | 14.00663 | 35085 ft | 461 kts | 129° |
| 2026-04-25 10:23 | 46.95850 | 14.08259 | 35090 ft | 462 kts | 128° |
| 2026-04-25 10:24 | 46.92077 | 14.15873 | 35063 ft | 462 kts | 128° |
| 2026-04-25 10:24 | 46.88305 | 14.23459 | 35081 ft | 461 kts | 128° |
| 2026-04-25 10:25 | 46.84535 | 14.31027 | 35082 ft | 460 kts | 128° |
| 2026-04-25 10:25 | 46.80745 | 14.38578 | 35082 ft | 461 kts | 128° |
| 2026-04-25 10:26 | 46.76976 | 14.46146 | 35083 ft | 462 kts | 128° |
| 2026-04-25 10:26 | 46.73171 | 14.53685 | 35080 ft | 461 kts | 128° |
| 2026-04-25 10:27 | 46.69368 | 14.61223 | 35076 ft | 462 kts | 128° |
| 2026-04-25 10:27 | 46.65556 | 14.68747 | 35076 ft | 462 kts | 129° |
| 2026-04-25 10:28 | 46.61755 | 14.76201 | 35069 ft | 461 kts | 129° |
| 2026-04-25 10:28 | 46.57939 | 14.83694 | 35070 ft | 461 kts | 128° |
| 2026-04-25 10:29 | 46.54134 | 14.91188 | 35066 ft | 461 kts | 128° |
| 2026-04-25 10:29 | 46.50308 | 14.98660 | 35059 ft | 461 kts | 129° |
| 2026-04-25 10:30 | 46.47088 | 15.04883 | 35054 ft | 460 kts | 129° |
| 2026-04-25 10:30 | 46.43259 | 15.12319 | 35060 ft | 461 kts | 128° |
| 2026-04-25 10:31 | 46.39430 | 15.19768 | 35064 ft | 461 kts | 128° |
| 2026-04-25 10:31 | 46.35590 | 15.27192 | 35046 ft | 460 kts | 128° |
| 2026-04-25 10:32 | 46.31764 | 15.34591 | 35061 ft | 458 kts | 129° |
| 2026-04-25 10:32 | 46.27952 | 15.41909 | 35061 ft | 459 kts | 128° |
| 2026-04-25 10:33 | 46.24117 | 15.49291 | 35064 ft | 459 kts | 129° |
| 2026-04-25 10:33 | 46.20248 | 15.56641 | 35065 ft | 460 kts | 128° |
| 2026-04-25 10:34 | 46.16452 | 15.64068 | 35072 ft | 460 kts | 125° |
| 2026-04-25 10:34 | 46.12921 | 15.71765 | 35071 ft | 460 kts | 124° |
| 2026-04-25 10:35 | 46.09370 | 15.79442 | 35076 ft | 460 kts | 125° |
| 2026-04-25 10:35 | 46.06077 | 15.86580 | 35067 ft | 459 kts | 124° |
| 2026-04-25 10:36 | 46.02561 | 15.94218 | 35071 ft | 457 kts | 125° |
| 2026-04-25 10:36 | 45.99041 | 16.01828 | 35079 ft | 457 kts | 125° |
| 2026-04-25 10:37 | 45.95502 | 16.09434 | 35078 ft | 458 kts | 125° |
| 2026-04-25 10:37 | 45.91955 | 16.17032 | 35077 ft | 458 kts | 125° |
| 2026-04-25 10:38 | 45.88386 | 16.24610 | 35077 ft | 458 kts | 125° |
| 2026-04-25 10:38 | 45.84839 | 16.32189 | 35074 ft | 457 kts | 125° |
| 2026-04-25 10:39 | 45.81287 | 16.39742 | 35073 ft | 456 kts | 125° |
| 2026-04-25 10:39 | 45.77736 | 16.47276 | 35073 ft | 456 kts | 125° |
| 2026-04-25 10:40 | 45.74204 | 16.54754 | 34783 ft | 447 kts | 125° |
| 2026-04-25 10:40 | 45.72462 | 16.58412 | 34511 ft | 444 kts | 126° |
| 2026-04-25 10:40 | 45.70734 | 16.62058 | 34270 ft | 441 kts | 125° |
| 2026-04-25 10:40 | 45.69019 | 16.65684 | 34021 ft | 439 kts | 125° |
| 2026-04-25 10:41 | 45.67307 | 16.69290 | 33753 ft | 438 kts | 125° |
| 2026-04-25 10:41 | 45.65590 | 16.72883 | 33477 ft | 436 kts | 125° |
| 2026-04-25 10:41 | 45.63884 | 16.76453 | 33206 ft | 434 kts | 125° |
| 2026-04-25 10:41 | 45.62181 | 16.80006 | 32940 ft | 432 kts | 125° |
| 2026-04-25 10:42 | 45.60492 | 16.83543 | 32678 ft | 430 kts | 125° |
| 2026-04-25 10:42 | 45.58839 | 16.87018 | 32419 ft | 428 kts | 125° |
| 2026-04-25 10:42 | 45.57168 | 16.90517 | 32160 ft | 426 kts | 125° |
| 2026-04-25 10:42 | 45.55465 | 16.93959 | 31909 ft | 423 kts | 128° |
| 2026-04-25 10:43 | 45.53653 | 16.97327 | 31645 ft | 421 kts | 129° |
| 2026-04-25 10:43 | 45.51878 | 17.00577 | 31396 ft | 420 kts | 128° |
| 2026-04-25 10:43 | 45.50083 | 17.03852 | 31147 ft | 418 kts | 128° |
| 2026-04-25 10:43 | 45.48295 | 17.07109 | 30900 ft | 416 kts | 129° |
| 2026-04-25 10:44 | 45.46506 | 17.10344 | 30664 ft | 415 kts | 129° |
| 2026-04-25 10:44 | 45.44736 | 17.13572 | 30416 ft | 413 kts | 128° |
| 2026-04-25 10:44 | 45.42977 | 17.16797 | 30165 ft | 411 kts | 128° |
| 2026-04-25 10:44 | 45.41230 | 17.19988 | 29696 ft | 407 kts | 128° |
| 2026-04-25 10:45 | 45.39487 | 17.23148 | 29184 ft | 404 kts | 128° |
| 2026-04-25 10:45 | 45.37761 | 17.26287 | 28673 ft | 401 kts | 128° |
| 2026-04-25 10:45 | 45.36042 | 17.29394 | 28180 ft | 399 kts | 128° |
| 2026-04-25 10:45 | 45.34339 | 17.32489 | 27707 ft | 396 kts | 128° |
| 2026-04-25 10:46 | 45.32648 | 17.35556 | 27243 ft | 393 kts | 128° |
| 2026-04-25 10:46 | 45.30961 | 17.38595 | 26759 ft | 390 kts | 129° |
| 2026-04-25 10:46 | 45.29277 | 17.41611 | 26279 ft | 389 kts | 129° |
| 2026-04-25 10:46 | 45.27602 | 17.44608 | 25823 ft | 387 kts | 129° |
| 2026-04-25 10:47 | 45.25942 | 17.47591 | 25373 ft | 384 kts | 128° |
| 2026-04-25 10:47 | 45.24289 | 17.50565 | 24914 ft | 383 kts | 129° |
| 2026-04-25 10:47 | 45.22646 | 17.53527 | 24447 ft | 382 kts | 129° |
| 2026-04-25 10:47 | 45.21007 | 17.56480 | 23981 ft | 381 kts | 129° |
| 2026-04-25 10:48 | 45.19370 | 17.59425 | 23492 ft | 380 kts | 128° |
| 2026-04-25 10:48 | 45.17736 | 17.62364 | 22955 ft | 379 kts | 128° |
| 2026-04-25 10:48 | 45.16111 | 17.65286 | 22463 ft | 376 kts | 128° |
| 2026-04-25 10:48 | 45.14493 | 17.68189 | 21967 ft | 375 kts | 128° |
| 2026-04-25 10:49 | 45.12878 | 17.71078 | 21475 ft | 373 kts | 128° |
| 2026-04-25 10:49 | 45.11270 | 17.73948 | 21005 ft | 371 kts | 128° |
| 2026-04-25 10:49 | 45.09669 | 17.76802 | 20549 ft | 369 kts | 128° |
| 2026-04-25 10:49 | 45.08099 | 17.79602 | 20119 ft | 367 kts | 128° |
| 2026-04-25 10:50 | 45.06497 | 17.82460 | 19670 ft | 365 kts | 128° |
| 2026-04-25 10:50 | 45.04946 | 17.85225 | 19243 ft | 363 kts | 128° |
| 2026-04-25 10:50 | 45.03375 | 17.88017 | 18831 ft | 362 kts | 128° |
| 2026-04-25 10:50 | 45.01787 | 17.90840 | 18414 ft | 362 kts | 128° |
| 2026-04-25 10:51 | 45.00243 | 17.93588 | 17954 ft | 361 kts | 128° |
| 2026-04-25 10:51 | 44.98686 | 17.96372 | 17490 ft | 361 kts | 127° |
| 2026-04-25 10:51 | 44.97226 | 17.99251 | 17064 ft | 360 kts | 124° |
| 2026-04-25 10:51 | 44.95818 | 18.02142 | 16652 ft | 354 kts | 123° |
| 2026-04-25 10:52 | 44.94437 | 18.04990 | 16259 ft | 349 kts | 123° |
| 2026-04-25 10:52 | 44.93079 | 18.07785 | 15874 ft | 343 kts | 123° |
| 2026-04-25 10:52 | 44.91740 | 18.10540 | 15499 ft | 337 kts | 123° |
| 2026-04-25 10:52 | 44.90424 | 18.13245 | 15125 ft | 332 kts | 123° |
| 2026-04-25 10:53 | 44.89133 | 18.15907 | 14755 ft | 327 kts | 123° |
| 2026-04-25 10:53 | 44.87854 | 18.18535 | 14398 ft | 324 kts | 123° |
| 2026-04-25 10:53 | 44.86573 | 18.21161 | 14018 ft | 326 kts | 123° |
| 2026-04-25 10:53 | 44.85280 | 18.23798 | 13623 ft | 328 kts | 123° |
| 2026-04-25 10:54 | 44.83979 | 18.26455 | 13202 ft | 330 kts | 123° |
| 2026-04-25 10:54 | 44.83115 | 18.28220 | 12939 ft | 330 kts | 123° |
| 2026-04-25 10:54 | 44.81365 | 18.31780 | 12436 ft | 331 kts | 123° |
| 2026-04-25 10:54 | 44.80058 | 18.34441 | 12035 ft | 328 kts | 123° |
| 2026-04-25 10:55 | 44.78767 | 18.37064 | 11640 ft | 324 kts | 123° |
| 2026-04-25 10:55 | 44.77492 | 18.39650 | 11240 ft | 319 kts | 123° |
| 2026-04-25 10:55 | 44.76234 | 18.42200 | 10846 ft | 315 kts | 123° |
| 2026-04-25 10:55 | 44.74990 | 18.44723 | 10443 ft | 312 kts | 123° |
| 2026-04-25 10:56 | 44.73758 | 18.47219 | 10075 ft | 309 kts | 123° |
| 2026-04-25 10:56 | 44.72541 | 18.49682 | 9748 ft | 303 kts | 123° |
| 2026-04-25 10:56 | 44.71351 | 18.52088 | 9378 ft | 298 kts | 123° |
| 2026-04-25 10:56 | 44.70173 | 18.54473 | 8958 ft | 296 kts | 123° |
| 2026-04-25 10:57 | 44.68999 | 18.56849 | 8536 ft | 296 kts | 123° |
| 2026-04-25 10:57 | 44.67825 | 18.59222 | 8178 ft | 294 kts | 124° |
| 2026-04-25 10:57 | 44.66667 | 18.61555 | 7897 ft | 287 kts | 123° |
| 2026-04-25 10:57 | 44.65546 | 18.63808 | 7773 ft | 274 kts | 124° |
| 2026-04-25 10:58 | 44.64484 | 18.65944 | 7736 ft | 259 kts | 123° |
| 2026-04-25 10:58 | 44.63481 | 18.67987 | 7720 ft | 257 kts | 121° |
| 2026-04-25 10:58 | 44.62802 | 18.70271 | 7700 ft | 254 kts | 100° |
| 2026-04-25 10:58 | 44.62506 | 18.72705 | 7703 ft | 253 kts | 96° |
| 2026-04-25 10:59 | 44.62251 | 18.75144 | 7696 ft | 253 kts | 96° |
| 2026-04-25 10:59 | 44.61986 | 18.77592 | 7707 ft | 254 kts | 96° |
| 2026-04-25 10:59 | 44.61714 | 18.80034 | 7693 ft | 253 kts | 97° |
| 2026-04-25 10:59 | 44.61435 | 18.82468 | 7690 ft | 252 kts | 97° |
| 2026-04-25 11:00 | 44.61155 | 18.84897 | 7705 ft | 252 kts | 97° |
| 2026-04-25 11:00 | 44.60874 | 18.87321 | 7591 ft | 249 kts | 97° |
| 2026-04-25 11:00 | 44.60598 | 18.89685 | 7337 ft | 242 kts | 97° |
| 2026-04-25 11:00 | 44.60329 | 18.91984 | 7041 ft | 234 kts | 97° |
| 2026-04-25 11:01 | 44.60069 | 18.94195 | 6820 ft | 228 kts | 97° |
| 2026-04-25 11:01 | 44.59810 | 18.96361 | 6528 ft | 223 kts | 99° |
| 2026-04-25 11:01 | 44.59205 | 18.98318 | 6203 ft | 219 kts | 129° |
| 2026-04-25 11:01 | 44.57977 | 18.99489 | 5953 ft | 212 kts | 159° |
| 2026-04-25 11:02 | 44.56592 | 19.00105 | 5698 ft | 207 kts | 164° |
| 2026-04-25 11:02 | 44.55245 | 19.00698 | 5445 ft | 200 kts | 163° |
| 2026-04-25 11:02 | 44.53916 | 19.01291 | 5219 ft | 201 kts | 165° |
| 2026-04-25 11:02 | 44.52581 | 19.01893 | 4973 ft | 201 kts | 165° |
| 2026-04-25 11:03 | 44.51222 | 19.02172 | 4725 ft | 197 kts | 187° |
| 2026-04-25 11:03 | 44.49868 | 19.01931 | 4522 ft | 196 kts | 188° |
| 2026-04-25 11:03 | 44.48526 | 19.01710 | 4255 ft | 194 kts | 188° |
| 2026-04-25 11:03 | 44.47186 | 19.01491 | 4035 ft | 193 kts | 188° |
| 2026-04-25 11:04 | 44.45859 | 19.01230 | 3913 ft | 193 kts | 195° |
| 2026-04-25 11:04 | 44.44582 | 19.00636 | 3850 ft | 194 kts | 200° |
| 2026-04-25 11:04 | 44.43532 | 18.99576 | 3537 ft | 186 kts | 242° |
| 2026-04-25 11:04 | 44.43298 | 18.98460 | 3353 ft | 181 kts | 271° |
| 2026-04-25 11:05 | 44.43808 | 18.96257 | 3063 ft | 177 kts | 289° |
| 2026-04-25 11:05 | 44.44043 | 18.94662 | 2970 ft | 155 kts | 281° |
| 2026-04-25 11:05 | 44.44184 | 18.93296 | 2933 ft | 136 kts | 278° |
| 2026-04-25 11:05 | 44.44295 | 18.91981 | 2948 ft | 137 kts | 277° |
| 2026-04-25 11:06 | 44.44405 | 18.90664 | 2989 ft | 136 kts | 277° |
| 2026-04-25 11:06 | 44.44513 | 18.89345 | 2941 ft | 136 kts | 278° |
| 2026-04-25 11:06 | 44.44616 | 18.88022 | 2784 ft | 136 kts | 277° |
| 2026-04-25 11:06 | 44.44721 | 18.86715 | 2573 ft | 136 kts | 277° |
| 2026-04-25 11:07 | 44.44826 | 18.85408 | 2382 ft | 135 kts | 278° |
| 2026-04-25 11:07 | 44.44928 | 18.84110 | 2208 ft | 134 kts | 277° |
| 2026-04-25 11:07 | 44.45032 | 18.82809 | 2004 ft | 134 kts | 277° |
| 2026-04-25 11:07 | 44.45134 | 18.81510 | 1836 ft | 134 kts | 277° |
| 2026-04-25 11:08 | 44.45238 | 18.80213 | 1660 ft | 134 kts | 278° |
| 2026-04-25 11:08 | 44.45345 | 18.78913 | 1459 ft | 133 kts | 279° |
| 2026-04-25 11:08 | 44.45448 | 18.77634 | 1304 ft | 135 kts | 278° |
| 2026-04-25 11:08 | 44.45567 | 18.76328 | 1138 ft | 136 kts | 279° |
| 2026-04-25 11:09 | 44.45664 | 18.75001 | 966 ft | 137 kts | 278° |
| 2026-04-25 11:09 | 44.45769 | 18.73679 | 797 ft | 133 kts | 278° |
| 2026-04-25 11:09 | 44.45854 | 18.72640 | 792 ft | 78 kts | 276° |
| 2026-04-25 11:09 | 44.45892 | 18.72156 | 793 ft | 33 kts | 276° |
| 2026-04-25 11:10 | 44.45918 | 18.71829 | 792 ft | 34 kts | 277° |
| 2026-04-25 11:10 | 44.45928 | 18.71716 | 790 ft | 35 kts | 277° |
| 2026-04-25 11:10 | 44.45962 | 18.71271 | 783 ft | 22 kts | 276° |
| 2026-04-25 11:10 | 44.45977 | 18.71059 | 784 ft | 18 kts | 276° |
| 2026-04-25 11:11 | 44.46014 | 18.70935 | 784 ft | 13 kts | 321° |
| 2026-04-25 11:11 | 44.46070 | 18.70920 | 782 ft | 9 kts | 5° |
| 2026-04-25 11:11 | 44.46124 | 18.70928 | 781 ft | 6 kts | 7° |
| 2026-04-25 11:11 | 44.46173 | 18.70936 | 781 ft | 8 kts | 7° |
| 2026-04-25 11:12 | 44.46241 | 18.70951 | 783 ft | 12 kts | 9° |
| 2026-04-25 11:12 | 44.46282 | 18.70960 | 784 ft | 5 kts | 8° |
| 2026-04-25 11:12 | 44.46316 | 18.70967 | 786 ft | 4 kts | 8° |
| 2026-04-25 11:12 | 44.46333 | 18.70972 | 786 ft | 2 kts | 19° |
| 2026-04-25 11:13 | 44.46341 | 18.70990 | 787 ft | 0 kts | 85° |